Time;durP1;ratioP1;P1;durP2;ratioP2;P2;SDS_P1;SDS_P2;PMS_P1;PMS_P2;Temp;Humidity;BMP_temperature;BMP_pressure;BME280_temperature;BME280_humidity;BME280_pressure;Samples;Min_cycle;Max_cycle;Signal;HPM_P1;HPM_P2
2020/12/15 00:02:28;;;;;;;32.75;18.52;;;4.10;99.90;;;;;;5090838;28;20058;-50
2020/12/15 00:05:31;;;;;;;37.53;22.35;;;4.00;99.90;;;;;;5091207;28;20441;-50
2020/12/15 00:08:36;;;;;;;41.20;22.98;;;4.00;99.90;;;;;;5090769;28;20043;-51
2020/12/15 00:11:40;;;;;;;31.98;19.35;;;3.90;99.90;;;;;;5090957;28;20047;-50
2020/12/15 00:14:44;;;;;;;31.88;20.25;;;3.90;99.90;;;;;;5090608;28;20063;-50
2020/12/15 00:17:48;;;;;;;33.75;20.00;;;3.80;99.90;;;;;;5090124;28;20043;-53
2020/12/15 00:20:52;;;;;;;27.23;17.83;;;3.80;99.90;;;;;;5090921;28;20051;-52
2020/12/15 00:23:58;;;;;;;28.63;17.88;;;3.90;99.90;;;;;;5091015;28;20407;-51
2020/12/15 00:27:03;;;;;;;30.60;17.33;;;3.90;99.90;;;;;;5090983;28;20050;-50
2020/12/15 00:30:14;;;;;;;27.58;17.80;;;4.00;99.90;;;;;;5090627;28;20039;-52
2020/12/15 00:33:18;;;;;;;35.67;20.17;;;4.00;99.90;;;;;;5090381;28;20052;-50
2020/12/15 00:36:22;;;;;;;35.00;21.17;;;4.10;99.90;;;;;;5090644;28;20043;-52
2020/12/15 00:39:26;;;;;;;34.00;18.73;;;4.20;99.90;;;;;;5090241;28;20051;-51
2020/12/15 00:42:30;;;;;;;31.02;19.42;;;4.30;99.90;;;;;;5090228;28;20521;-53
2020/12/15 00:45:35;;;;;;;36.97;19.65;;;4.30;99.90;;;;;;5077969;28;20054;-52
2020/12/15 00:48:39;;;;;;;32.15;19.48;;;4.30;99.90;;;;;;5089893;28;20047;-50
2020/12/15 00:51:47;;;;;;;27.17;16.85;;;4.20;99.90;;;;;;5089494;28;20047;-51
2020/12/15 00:54:51;;;;;;;23.05;14.60;;;4.20;99.90;;;;;;5090440;28;20051;-53
2020/12/15 00:57:55;;;;;;;27.42;16.92;;;4.20;99.90;;;;;;5089687;28;20043;-53
2020/12/15 01:01:00;;;;;;;28.90;16.73;;;4.20;99.90;;;;;;5101065;28;20039;-51
2020/12/15 01:04:04;;;;;;;25.52;15.85;;;4.20;99.90;;;;;;5086573;28;20516;-53
2020/12/15 01:07:08;;;;;;;32.80;18.63;;;4.20;99.90;;;;;;5086479;28;20055;-52
2020/12/15 01:10:13;;;;;;;26.27;16.95;;;4.10;99.90;;;;;;5089919;28;20039;-51
2020/12/15 01:13:24;;;;;;;25.55;16.30;;;4.00;99.90;;;;;;5089195;28;20429;-51
2020/12/15 01:16:29;;;;;;;26.25;16.77;;;4.00;99.90;;;;;;5081157;28;20059;-51
2020/12/15 01:19:35;;;;;;;31.48;17.63;;;4.00;99.90;;;;;;5087204;28;20059;-50
2020/12/15 01:22:40;;;;;;;31.20;18.35;;;4.00;99.90;;;;;;5089746;28;20031;-51
2020/12/15 01:25:48;;;;;;;28.58;17.05;;;3.90;99.90;;;;;;5089005;28;20047;-53
2020/12/15 01:28:52;;;;;;;22.88;15.02;;;4.00;99.90;;;;;;5089335;28;20047;-53
2020/12/15 01:32:01;;;;;;;23.52;14.20;;;3.90;99.90;;;;;;5080413;28;20051;-51
2020/12/15 01:35:05;;;;;;;23.88;14.63;;;4.10;99.90;;;;;;5089043;28;20402;-51
2020/12/15 01:38:10;;;;;;;23.63;14.70;;;4.10;99.90;;;;;;5077199;28;20050;-50
2020/12/15 01:41:14;;;;;;;22.88;13.60;;;4.20;99.90;;;;;;5088793;28;20410;-52
2020/12/15 01:44:18;;;;;;;25.08;12.43;;;4.20;99.90;;;;;;5086017;28;20068;-53
2020/12/15 01:47:25;;;;;;;21.38;11.10;;;4.20;99.90;;;;;;5088559;28;20054;-50
2020/12/15 01:50:29;;;;;;;17.67;12.02;;;4.20;99.90;;;;;;5089537;28;20047;-52
2020/12/15 01:53:35;;;;;;;18.77;11.25;;;4.30;99.90;;;;;;5086280;28;20044;-51
2020/12/15 01:56:41;;;;;;;18.08;11.57;;;4.30;99.90;;;;;;5086657;28;20055;-52
2020/12/15 01:59:55;;;;;;;25.60;16.13;;;4.10;99.90;;;;;;5089284;28;20518;-52
2020/12/15 02:03:03;;;;;;;25.38;16.60;;;3.90;99.90;;;;;;5088452;28;20086;-53
2020/12/15 02:06:30;;;;;;;24.45;15.95;;;3.70;99.90;;;;;;5080395;28;20047;-55
2020/12/15 02:09:47;;;;;;;27.23;17.25;;;3.60;99.90;;;;;;5079711;28;20624;-53
2020/12/15 02:13:02;;;;;;;43.40;20.50;;;3.40;99.90;;;;;;5079574;28;20039;-51
2020/12/15 02:16:09;;;;;;;307.77;34.60;;;3.00;99.90;;;;;;5086049;28;20055;-55
2020/12/15 02:19:16;;;;;;;41.13;21.23;;;2.90;99.90;;;;;;5087455;28;20410;-51
2020/12/15 02:22:23;;;;;;;35.35;20.90;;;2.70;99.90;;;;;;5085587;28;20047;-54
2020/12/15 02:25:28;;;;;;;32.45;19.38;;;2.60;99.90;;;;;;5086879;28;20047;-51
2020/12/15 02:28:34;;;;;;;28.17;18.50;;;2.70;99.90;;;;;;5069928;28;20079;-53
2020/12/15 02:31:40;;;;;;;31.02;20.55;;;2.70;99.90;;;;;;5087771;28;20043;-50
2020/12/15 02:34:44;;;;;;;31.85;20.13;;;2.80;99.90;;;;;;5088794;28;20062;-51
2020/12/15 02:37:51;;;;;;;31.73;19.70;;;2.90;99.90;;;;;;5088833;28;20047;-52
2020/12/15 02:41:01;;;;;;;28.05;18.08;;;3.00;99.90;;;;;;5085182;28;20518;-57
2020/12/15 02:44:21;;;;;;;31.10;18.33;;;3.10;99.90;;;;;;5083408;28;20051;-53
2020/12/15 02:47:32;;;;;;;30.40;18.77;;;3.20;99.90;;;;;;5094709;28;20522;-50
2020/12/15 02:50:37;;;;;;;29.05;16.80;;;3.30;99.90;;;;;;5077356;28;20039;-51
2020/12/15 02:53:56;;;;;;;31.67;17.70;;;3.50;99.90;;;;;;5091597;28;20047;-52
2020/12/15 02:57:00;;;;;;;27.92;16.67;;;3.70;99.90;;;;;;5089230;28;20055;-52
2020/12/15 03:00:12;;;;;;;31.45;17.80;;;3.80;99.90;;;;;;5090876;28;20035;-54
2020/12/15 03:03:18;;;;;;;24.58;16.20;;;3.80;99.90;;;;;;5084267;28;20047;-51
2020/12/15 03:06:31;;;;;;;25.02;15.55;;;3.90;99.90;;;;;;5087231;28;20055;-54
2020/12/15 03:09:38;;;;;;;24.08;16.00;;;4.00;99.90;;;;;;5079972;28;20047;-51
2020/12/15 03:12:43;;;;;;;25.85;13.75;;;4.00;99.90;;;;;;5103275;28;20043;-51
2020/12/15 03:15:50;;;;;;;24.17;14.80;;;4.10;99.90;;;;;;5083345;28;20051;-50
2020/12/15 03:19:00;;;;;;;24.65;14.45;;;4.10;99.90;;;;;;5079810;28;20039;-53
2020/12/15 03:22:05;;;;;;;25.35;16.33;;;4.20;99.90;;;;;;5091265;28;20398;-51
2020/12/15 03:25:19;;;;;;;29.48;19.23;;;4.10;99.90;;;;;;5088875;28;20039;-50
2020/12/15 03:28:26;;;;;;;38.95;22.52;;;3.90;99.90;;;;;;5098887;28;20058;-51
2020/12/15 03:31:36;;;;;;;35.17;21.33;;;3.50;99.90;;;;;;5101149;28;20513;-56
2020/12/15 03:34:41;;;;;;;34.90;21.02;;;3.40;99.90;;;;;;5102741;28;20051;-51
2020/12/15 03:37:45;;;;;;;27.30;18.23;;;3.30;99.90;;;;;;5079248;28;20039;-50
2020/12/15 03:40:50;;;;;;;32.92;21.17;;;3.30;99.90;;;;;;5102131;28;20055;-52
2020/12/15 03:44:23;;;;;;;48.88;25.73;;;3.10;99.90;;;;;;5077693;28;20063;-51
2020/12/15 03:47:45;;;;;;;41.75;23.90;;;2.80;99.90;;;;;;5090427;28;20537;-52
2020/12/15 03:50:48;;;;;;;281.10;40.17;;;2.60;99.90;;;;;;5091064;28;20047;-53
2020/12/15 03:53:59;;;;;;;35.47;20.25;;;2.50;99.90;;;;;;5090385;28;20047;-50
2020/12/15 03:57:05;;;;;;;43.45;22.45;;;2.50;99.90;;;;;;5090596;28;20521;-52
2020/12/15 04:00:18;;;;;;;38.97;23.65;;;2.70;99.90;;;;;;5090260;28;20047;-50
2020/12/15 04:03:35;;;;;;;37.25;22.17;;;2.70;99.90;;;;;;5090412;28;20410;-51
2020/12/15 04:06:53;;;;;;;40.35;23.40;;;2.90;99.90;;;;;;5081058;28;20039;-53
2020/12/15 04:10:10;;;;;;;34.92;21.25;;;2.90;99.90;;;;;;5101438;28;20043;-51
2020/12/15 04:13:20;;;;;;;34.35;21.17;;;2.90;99.90;;;;;;5087174;28;20039;-54
2020/12/15 04:16:26;;;;;;;39.03;21.38;;;3.00;99.90;;;;;;5090094;28;20035;-55
2020/12/15 04:19:48;;;;;;;33.00;21.33;;;3.00;99.90;;;;;;5089855;28;20051;-50
2020/12/15 04:22:53;;;;;;;33.40;22.00;;;3.10;99.90;;;;;;5087142;28;20048;-50
2020/12/15 04:26:03;;;;;;;32.60;20.63;;;3.20;99.90;;;;;;5102145;28;20039;-51
2020/12/15 04:29:15;;;;;;;29.02;18.50;;;3.20;99.90;;;;;;5090493;28;20485;-52
2020/12/15 04:32:42;;;;;;;31.88;19.17;;;3.30;99.90;;;;;;5090939;28;20058;-53
2020/12/15 04:35:56;;;;;;;35.92;20.23;;;3.30;99.90;;;;;;5081664;28;20044;-50
2020/12/15 04:39:04;;;;;;;37.58;19.45;;;3.50;99.90;;;;;;5077373;28;20043;-50
2020/12/15 04:42:17;;;;;;;29.75;18.58;;;3.50;99.90;;;;;;5075220;28;20051;-50
2020/12/15 04:45:22;;;;;;;29.02;17.95;;;3.70;99.90;;;;;;5087212;28;20039;-53
2020/12/15 04:48:39;;;;;;;25.50;14.65;;;3.80;99.90;;;;;;5089442;28;20039;-51
2020/12/15 04:52:03;;;;;;;22.63;13.05;;;4.00;99.90;;;;;;5088659;28;20051;-53
2020/12/15 04:55:22;;;;;;;18.90;11.25;;;4.40;99.90;;;;;;5086957;28;20043;-51
2020/12/15 04:58:27;;;;;;;19.33;11.82;;;4.60;99.90;;;;;;5087634;28;20059;-52
2020/12/15 05:01:35;;;;;;;20.88;11.90;;;4.70;99.90;;;;;;5080607;28;20043;-51
2020/12/15 05:04:50;;;;;;;20.52;12.23;;;4.80;99.90;;;;;;5080321;28;20048;-52
2020/12/15 05:08:01;;;;;;;20.25;12.48;;;4.60;99.90;;;;;;5092997;28;20313;-52
2020/12/15 05:11:17;;;;;;;23.70;12.60;;;4.70;99.90;;;;;;5090570;28;20533;-51
2020/12/15 05:14:51;;;;;;;18.90;12.40;;;4.80;99.90;;;;;;5084473;28;20419;-56
2020/12/15 05:18:04;;;;;;;21.98;12.45;;;4.90;99.90;;;;;;5089417;28;20044;-53
2020/12/15 05:21:14;;;;;;;24.20;13.23;;;4.90;99.90;;;;;;5083182;28;20055;-54
2020/12/15 05:24:22;;;;;;;28.65;15.98;;;4.80;99.90;;;;;;5089829;28;20035;-51
2020/12/15 05:27:32;;;;;;;34.25;19.48;;;4.50;99.90;;;;;;5089363;28;20051;-55
2020/12/15 05:31:01;;;;;;;35.35;21.55;;;4.20;99.90;;;;;;5079060;28;20039;-55
2020/12/15 05:34:23;;;;;;;55.13;24.30;;;3.80;99.90;;;;;;5089738;28;20031;-56
2020/12/15 05:37:46;;;;;;;55.50;25.80;;;3.50;99.90;;;;;;5080527;28;20402;-53
2020/12/15 05:41:14;;;;;;;38.17;23.75;;;3.30;99.90;;;;;;5089055;28;20682;-55
2020/12/15 05:44:35;;;;;;;44.25;23.70;;;3.30;99.90;;;;;;5079573;28;20051;-56
2020/12/15 05:47:41;;;;;;;39.03;23.67;;;3.30;99.90;;;;;;5077295;28;20046;-56
2020/12/15 05:50:56;;;;;;;44.78;24.83;;;3.30;99.90;;;;;;5071105;28;20407;-56
2020/12/15 05:54:06;;;;;;;36.60;23.45;;;3.20;99.90;;;;;;5079847;28;20044;-56
2020/12/15 05:57:11;;;;;;;38.20;23.95;;;3.20;99.90;;;;;;5087932;28;20036;-55
2020/12/15 06:00:15;;;;;;;36.95;23.98;;;3.20;99.90;;;;;;5084131;28;20051;-56
2020/12/15 06:03:19;;;;;;;32.03;20.73;;;3.30;99.90;;;;;;5083289;28;20051;-56
2020/12/15 06:06:24;;;;;;;26.58;17.55;;;3.40;99.90;;;;;;5089491;28;20047;-55
2020/12/15 06:09:30;;;;;;;30.17;18.02;;;3.50;99.90;;;;;;5086229;28;20047;-56
2020/12/15 06:12:34;;;;;;;31.73;18.98;;;3.60;99.90;;;;;;5085256;28;20039;-55
2020/12/15 06:15:38;;;;;;;24.38;15.35;;;3.70;99.90;;;;;;5088941;28;20051;-54
2020/12/15 06:18:42;;;;;;;23.38;13.35;;;3.90;99.90;;;;;;5089344;28;20047;-56
2020/12/15 06:21:52;;;;;;;21.15;12.77;;;4.20;99.90;;;;;;5091374;28;20043;-54
2020/12/15 06:24:58;;;;;;;15.70;10.68;;;4.40;99.90;;;;;;5091953;28;20050;-56
2020/12/15 06:28:10;;;;;;;23.63;14.82;;;4.70;99.90;;;;;;5087879;28;20039;-51
2020/12/15 06:31:19;;;;;;;;;;;4.80;99.90;;;;;;5091165;28;20055;-52
2020/12/15 06:34:29;;;;;;;20.73;14.27;;;4.50;99.90;;;;;;5083739;28;19919;-58
2020/12/15 06:37:36;;;;;;;23.48;14.57;;;4.30;99.90;;;;;;5089166;28;20039;-55
2020/12/15 06:40:45;;;;;;;33.30;22.35;;;4.20;99.90;;;;;;5090388;28;21279;-56
2020/12/15 06:43:49;;;;;;;33.05;21.02;;;3.40;99.90;;;;;;5090298;28;20051;-56
2020/12/15 06:46:53;;;;;;;32.00;21.17;;;3.30;99.90;;;;;;5087499;28;20604;-54
2020/12/15 06:50:12;;;;;;;32.63;20.42;;;3.30;99.90;;;;;;5096142;28;20054;-56
2020/12/15 06:53:19;;;;;;;32.58;20.83;;;3.40;99.90;;;;;;5089123;28;20043;-52
2020/12/15 06:56:26;;;;;;;31.75;20.67;;;3.50;99.90;;;;;;5088787;28;20745;-52
2020/12/15 06:59:39;;;;;;;31.58;19.08;;;3.50;99.90;;;;;;5094025;28;20043;-53
2020/12/15 07:02:50;;;;;;;31.67;20.15;;;3.50;99.90;;;;;;5089184;28;20591;-53
2020/12/15 07:06:06;;;;;;;35.73;19.93;;;3.70;99.90;;;;;;5088570;28;20047;-55
2020/12/15 07:09:10;;;;;;;27.15;18.63;;;3.80;99.90;;;;;;5091074;28;20043;-49
2020/12/15 07:12:16;;;;;;;29.85;19.35;;;3.90;99.90;;;;;;5090687;28;20039;-55
2020/12/15 07:15:21;;;;;;;31.02;18.48;;;4.00;99.90;;;;;;5090258;28;20047;-50
2020/12/15 07:18:25;;;;;;;39.45;22.27;;;4.00;99.90;;;;;;5101396;28;20085;-52
2020/12/15 07:21:31;;;;;;;32.75;17.60;;;4.00;99.90;;;;;;5090540;28;20047;-52
2020/12/15 07:24:35;;;;;;;28.92;18.67;;;4.00;99.90;;;;;;5087982;28;20046;-53
2020/12/15 07:27:41;;;;;;;28.65;19.13;;;4.00;99.90;;;;;;5084993;28;20035;-50
2020/12/15 07:30:47;;;;;;;29.00;17.77;;;3.80;99.90;;;;;;5107651;28;20038;-50
2020/12/15 07:34:03;;;;;;;27.25;17.88;;;3.80;99.90;;;;;;5087534;28;20423;-52
2020/12/15 07:37:08;;;;;;;31.05;19.73;;;3.90;99.90;;;;;;5096298;28;20043;-51
2020/12/15 07:40:15;;;;;;;27.60;18.58;;;4.00;99.90;;;;;;5095810;28;20039;-55
2020/12/15 07:43:19;;;;;;;30.05;17.63;;;4.10;99.90;;;;;;5090481;28;20055;-53
2020/12/15 07:46:23;;;;;;;29.63;16.60;;;4.20;99.90;;;;;;5090981;28;20437;-54
2020/12/15 07:49:27;;;;;;;26.83;16.70;;;4.30;99.90;;;;;;5104285;28;20051;-56
2020/12/15 07:52:38;;;;;;;19.17;12.77;;;4.40;99.90;;;;;;5098527;28;20162;-55
2020/12/15 07:55:42;;;;;;;21.70;13.30;;;4.40;99.90;;;;;;5101630;28;20766;-51
2020/12/15 07:58:51;;;;;;;20.25;12.88;;;4.50;99.90;;;;;;5104491;28;20042;-54
2020/12/15 08:01:55;;;;;;;22.60;13.95;;;4.50;99.90;;;;;;5100629;28;20047;-54
2020/12/15 08:05:26;;;;;;;19.25;12.23;;;4.60;99.90;;;;;;5089056;28;20043;-51
2020/12/15 08:08:31;;;;;;;18.30;11.50;;;4.60;99.90;;;;;;5090994;28;20046;-57
2020/12/15 08:11:36;;;;;;;19.38;11.10;;;4.80;99.90;;;;;;5099803;28;20046;-55
2020/12/15 08:14:45;;;;;;;23.95;13.57;;;4.90;99.90;;;;;;5089524;28;20051;-54
2020/12/15 08:17:51;;;;;;;27.88;14.23;;;4.60;99.90;;;;;;5090155;28;20039;-56
2020/12/15 08:21:02;;;;;;;35.83;20.48;;;4.30;99.90;;;;;;5088430;28;20059;-53
2020/12/15 08:24:10;;;;;;;30.90;20.98;;;3.90;99.90;;;;;;5080654;28;20043;-53
2020/12/15 08:27:14;;;;;;;36.80;21.33;;;4.00;99.90;;;;;;5079032;28;20051;-51
2020/12/15 08:30:21;;;;;;;40.80;25.10;;;4.20;99.90;;;;;;5090361;28;20043;-53
2020/12/15 08:33:26;;;;;;;34.42;23.58;;;3.90;99.90;;;;;;5090182;28;20406;-55
2020/12/15 08:36:30;;;;;;;32.08;21.80;;;4.10;99.90;;;;;;5090367;28;20531;-54
2020/12/15 08:39:38;;;;;;;27.02;17.70;;;4.40;99.90;;;;;;5089964;28;20055;-53
2020/12/15 08:42:43;;;;;;;21.25;13.82;;;4.70;99.90;;;;;;5081269;28;20513;-54
2020/12/15 08:45:47;;;;;;;22.60;13.95;;;4.80;99.90;;;;;;5095510;28;20059;-52
2020/12/15 08:48:52;;;;;;;32.22;19.80;;;5.00;99.90;;;;;;5100371;28;20509;-54
2020/12/15 08:51:56;;;;;;;34.38;22.52;;;5.30;99.90;;;;;;5096532;28;20042;-54
2020/12/15 08:55:00;;;;;;;36.67;19.90;;;5.60;99.90;;;;;;5097168;28;20042;-53
2020/12/15 08:58:06;;;;;;;26.75;16.73;;;6.10;99.90;;;;;;5102173;28;20050;-51
2020/12/15 09:01:11;;;;;;;30.27;18.67;;;5.70;99.90;;;;;;5085084;28;20093;-53
2020/12/15 09:04:26;;;;;;;35.97;22.02;;;5.40;99.90;;;;;;5093554;28;20050;-51
2020/12/15 09:07:31;;;;;;;34.85;19.55;;;5.20;99.90;;;;;;5091135;28;20446;-51
2020/12/15 09:10:36;;;;;;;76.05;24.13;;;5.70;99.90;;;;;;5086879;28;20406;-52
2020/12/15 09:13:54;;;;;;;44.97;22.33;;;6.30;99.90;;;;;;5087547;28;20046;-51
2020/12/15 09:16:58;;;;;;;36.00;21.63;;;6.70;99.90;;;;;;5087295;28;20051;-53
2020/12/15 09:20:04;;;;;;;36.42;23.58;;;6.40;99.90;;;;;;5096974;28;20047;-53
2020/12/15 09:23:09;;;;;;;35.95;22.67;;;5.80;99.90;;;;;;5090070;28;20055;-52
2020/12/15 09:26:14;;;;;;;31.05;21.45;;;5.70;99.90;;;;;;5086904;28;20046;-52
2020/12/15 09:29:18;;;;;;;32.70;21.08;;;5.80;99.90;;;;;;5087752;28;20055;-51
2020/12/15 09:32:22;;;;;;;32.80;21.45;;;6.30;99.90;;;;;;5084438;28;20039;-56
2020/12/15 09:35:26;;;;;;;27.52;19.50;;;6.60;99.90;;;;;;5085930;28;20062;-51
2020/12/15 09:38:30;;;;;;;30.48;20.17;;;6.80;99.90;;;;;;5088484;28;20035;-51
2020/12/15 09:41:35;;;;;;;29.33;19.30;;;7.10;99.90;;;;;;5086611;28;20039;-52
2020/12/15 09:44:41;;;;;;;27.17;18.45;;;7.40;99.90;;;;;;5087173;28;20043;-55
2020/12/15 09:47:46;;;;;;;30.95;19.15;;;7.50;99.90;;;;;;5088111;28;20035;-55
2020/12/15 09:50:52;;;;;;;29.45;20.98;;;7.40;99.90;;;;;;5086188;28;20039;-50
2020/12/15 09:54:00;;;;;;;32.40;20.92;;;7.60;99.90;;;;;;5097511;28;20410;-52
2020/12/15 09:57:06;;;;;;;37.85;21.00;;;7.90;99.90;;;;;;5085619;28;20035;-52
2020/12/15 10:00:20;;;;;;;32.28;19.23;;;7.60;99.90;;;;;;5083287;28;20050;-52
2020/12/15 10:03:28;;;;;;;26.40;17.25;;;7.90;99.90;;;;;;5082588;28;20043;-54
2020/12/15 10:06:32;;;;;;;25.30;16.98;;;8.30;99.90;;;;;;5085099;28;20422;-50
2020/12/15 10:09:37;;;;;;;25.40;17.15;;;8.90;99.90;;;;;;5086887;28;20043;-51
2020/12/15 10:12:41;;;;;;;24.73;16.95;;;9.30;99.90;;;;;;5084836;28;20477;-53
2020/12/15 10:15:45;;;;;;;174.45;31.02;;;9.20;99.90;;;;;;5086558;28;20035;-53
2020/12/15 10:18:49;;;;;;;33.45;17.58;;;9.40;99.90;;;;;;5087442;28;20063;-50
2020/12/15 10:21:55;;;;;;;28.77;19.00;;;9.60;99.90;;;;;;5085090;28;20035;-51
2020/12/15 10:24:59;;;;;;;22.83;16.00;;;9.90;99.90;;;;;;5084094;28;20047;-51
2020/12/15 10:28:03;;;;;;;29.05;20.13;;;9.80;99.90;;;;;;5086293;28;20047;-51
2020/12/15 10:31:09;;;;;;;39.83;22.13;;;9.70;99.90;;;;;;5086178;28;20055;-50
2020/12/15 10:34:13;;;;;;;33.53;20.98;;;9.20;99.90;;;;;;5086178;28;20433;-51
2020/12/15 10:37:23;;;;;;;30.55;19.77;;;9.10;99.90;;;;;;5084932;28;20074;-52
2020/12/15 10:40:27;;;;;;;30.02;20.85;;;9.50;99.90;;;;;;5086995;28;20043;-52
2020/12/15 10:43:31;;;;;;;30.08;19.92;;;10.20;99.90;;;;;;5083712;28;20055;-54
2020/12/15 10:46:35;;;;;;;27.73;19.23;;;10.10;99.90;;;;;;5084984;28;20043;-54
2020/12/15 10:49:40;;;;;;;29.30;19.20;;;10.40;99.90;;;;;;5087986;28;20063;-55
2020/12/15 10:52:44;;;;;;;36.20;17.85;;;13.10;99.90;;;;;;5075883;28;20051;-52
2020/12/15 10:55:51;;;;;;;18.88;13.18;;;15.40;99.90;;;;;;5086656;28;20055;-53
2020/12/15 10:58:55;;;;;;;19.55;13.73;;;14.90;99.90;;;;;;5084877;28;20043;-51
2020/12/15 11:02:00;;;;;;;17.05;13.50;;;14.60;99.90;;;;;;5086576;28;20039;-55
2020/12/15 11:05:04;;;;;;;20.15;13.02;;;13.40;99.90;;;;;;5090404;28;20047;-54
2020/12/15 11:08:10;;;;;;;20.70;13.98;;;13.60;99.90;;;;;;5090056;28;20407;-53
2020/12/15 11:11:14;;;;;;;19.58;13.35;;;13.80;99.90;;;;;;5088304;28;20528;-51
2020/12/15 11:14:18;;;;;;;22.05;12.98;;;14.10;99.90;;;;;;5087109;28;20095;-51
2020/12/15 11:17:21;;;;;;;17.67;13.10;;;12.90;99.90;;;;;;5088894;28;20414;-51
2020/12/15 11:20:26;;;;;;;14.95;11.57;;;11.20;99.90;;;;;;5094256;28;20039;-51
2020/12/15 11:23:30;;;;;;;23.63;12.82;;;12.00;99.90;;;;;;5091990;28;20043;-53
2020/12/15 11:26:34;;;;;;;17.85;13.35;;;11.10;99.90;;;;;;5089939;28;20513;-51
2020/12/15 11:29:38;;;;;;;19.33;12.50;;;10.90;99.90;;;;;;5090479;28;20043;-51
2020/12/15 11:32:42;;;;;;;17.95;13.30;;;11.40;99.90;;;;;;5088668;28;20039;-51
2020/12/15 11:35:49;;;;;;;22.15;14.30;;;12.60;99.90;;;;;;5089316;28;20047;-50
2020/12/15 11:38:54;;;;;;;23.50;16.08;;;14.20;99.90;;;;;;5090272;28;20050;-54
2020/12/15 11:41:58;;;;;;;20.40;13.77;;;13.60;99.90;;;;;;5090390;28;20043;-50
2020/12/15 11:45:06;;;;;;;27.23;16.08;;;13.10;99.90;;;;;;5088232;28;20039;-51
2020/12/15 11:48:11;;;;;;;25.02;16.80;;;12.60;99.90;;;;;;5089196;28;20060;-51
2020/12/15 11:51:19;;;;;;;26.33;17.45;;;10.70;99.90;;;;;;5088733;28;20047;-53
2020/12/15 11:54:23;;;;;;;22.52;15.52;;;10.00;99.90;;;;;;5086205;28;20521;-50
2020/12/15 11:57:27;;;;;;;24.75;16.50;;;9.10;99.90;;;;;;5089205;28;20035;-51
2020/12/15 12:00:31;;;;;;;24.85;16.42;;;9.00;99.90;;;;;;5087994;28;20047;-50
2020/12/15 12:03:36;;;;;;;27.70;19.15;;;8.40;99.90;;;;;;5090486;28;20399;-50
2020/12/15 12:06:40;;;;;;;29.15;17.70;;;7.90;99.90;;;;;;5087794;28;20042;-49
2020/12/15 12:09:44;;;;;;;26.45;17.33;;;8.00;99.90;;;;;;5081289;28;20066;-52
2020/12/15 12:12:48;;;;;;;24.38;16.15;;;8.30;99.90;;;;;;5084739;28;20047;-55
2020/12/15 12:15:52;;;;;;;25.15;17.40;;;8.50;99.90;;;;;;5084776;28;20414;-53
2020/12/15 12:18:57;;;;;;;32.00;17.88;;;9.00;99.90;;;;;;5088253;28;20062;-50
2020/12/15 12:22:01;;;;;;;25.38;16.75;;;9.00;99.90;;;;;;5089584;28;20047;-53
2020/12/15 12:25:05;;;;;;;30.80;19.42;;;9.20;99.90;;;;;;5089865;28;20082;-51
2020/12/15 12:28:09;;;;;;;32.13;18.23;;;9.10;99.90;;;;;;5089101;28;20051;-51
2020/12/15 12:31:14;;;;;;;27.30;18.85;;;9.30;99.90;;;;;;5087766;28;20066;-51
2020/12/15 12:34:18;;;;;;;27.30;18.67;;;9.30;99.90;;;;;;5086504;28;20197;-53
2020/12/15 12:37:23;;;;;;;32.67;19.38;;;9.40;99.90;;;;;;5089599;28;20043;-50
2020/12/15 12:40:28;;;;;;;27.98;17.25;;;9.90;99.90;;;;;;5089286;28;20047;-50
2020/12/15 12:43:33;;;;;;;27.58;17.92;;;11.40;99.90;;;;;;5087997;28;20071;-50
2020/12/15 12:46:39;;;;;;;26.15;17.67;;;12.10;99.90;;;;;;5088686;28;20051;-51
2020/12/15 12:49:43;;;;;;;28.75;19.25;;;12.40;99.90;;;;;;5089553;28;20054;-49
2020/12/15 12:52:47;;;;;;;26.27;19.08;;;11.20;99.90;;;;;;5075229;28;20741;-51
2020/12/15 12:55:52;;;;;;;25.20;17.45;;;10.90;99.90;;;;;;5087669;28;20047;-51
2020/12/15 12:58:56;;;;;;;24.25;16.17;;;10.90;99.90;;;;;;5086319;28;20051;-51
2020/12/15 13:02:03;;;;;;;24.88;16.83;;;10.20;99.90;;;;;;5085841;28;20048;-50
2020/12/15 13:05:07;;;;;;;23.20;15.65;;;9.40;99.90;;;;;;5083280;28;20043;-50
2020/12/15 13:08:12;;;;;;;26.05;17.08;;;9.80;99.90;;;;;;5086164;28;20043;-50
2020/12/15 13:11:16;;;;;;;27.42;16.52;;;10.40;99.90;;;;;;5087374;28;20521;-50
2020/12/15 13:14:21;;;;;;;24.38;16.40;;;10.90;99.90;;;;;;5087216;28;20098;-51
2020/12/15 13:17:25;;;;;;;24.55;15.25;;;11.70;99.90;;;;;;5085349;28;20503;-50
2020/12/15 13:20:29;;;;;;;25.20;15.75;;;12.50;99.90;;;;;;5085690;28;20043;-53
2020/12/15 13:23:33;;;;;;;20.45;15.00;;;13.10;99.90;;;;;;5084380;28;20398;-51
2020/12/15 13:26:42;;;;;;;24.63;15.65;;;13.30;99.90;;;;;;5081994;28;20051;-49
2020/12/15 13:29:46;;;;;;;25.42;16.17;;;12.20;99.90;;;;;;5083681;28;20046;-51
2020/12/15 13:32:50;;;;;;;24.08;17.27;;;10.90;99.90;;;;;;5084700;28;20047;-50
2020/12/15 13:35:54;;;;;;;23.98;16.50;;;10.30;99.90;;;;;;5087190;28;20047;-51
2020/12/15 13:38:58;;;;;;;23.80;16.45;;;11.80;99.90;;;;;;5087561;28;20039;-50
2020/12/15 13:42:04;;;;;;;23.92;16.98;;;13.40;99.90;;;;;;5084668;28;20035;-50
2020/12/15 13:45:09;;;;;;;21.20;15.45;;;13.30;99.90;;;;;;5083997;28;20051;-50
2020/12/15 13:48:15;;;;;;;34.47;19.13;;;13.40;99.90;;;;;;5084030;28;20048;-53
2020/12/15 13:51:19;;;;;;;26.58;18.08;;;13.70;99.90;;;;;;5086087;28;20055;-54
2020/12/15 13:54:23;;;;;;;27.67;18.45;;;13.70;99.90;;;;;;5086174;28;20176;-50
2020/12/15 13:57:28;;;;;;;21.23;15.52;;;13.50;99.90;;;;;;5087419;28;20051;-49
2020/12/15 14:00:32;;;;;;;25.17;16.10;;;13.00;99.90;;;;;;5072769;28;20059;-53
2020/12/15 14:03:37;;;;;;;26.58;17.77;;;12.60;99.90;;;;;;5082673;28;20039;-48
2020/12/15 14:06:41;;;;;;;26.83;17.38;;;11.90;99.90;;;;;;5084802;28;20031;-52
2020/12/15 14:09:45;;;;;;;28.85;18.10;;;11.40;99.90;;;;;;5084934;28;20047;-50
2020/12/15 14:12:49;;;;;;;26.95;16.80;;;10.50;99.90;;;;;;5083336;28;20047;-51
2020/12/15 14:15:54;;;;;;;27.67;17.05;;;10.40;99.90;;;;;;5074771;28;20055;-52
2020/12/15 14:18:58;;;;;;;25.15;16.23;;;10.50;99.90;;;;;;5078636;28;20064;-51
2020/12/15 14:22:03;;;;;;;22.30;15.60;;;11.40;99.90;;;;;;5070470;28;20510;-50
2020/12/15 14:25:07;;;;;;;25.13;15.98;;;11.50;99.90;;;;;;5082462;28;20410;-51
2020/12/15 14:28:11;;;;;;;21.48;15.23;;;11.60;99.90;;;;;;5079132;28;20056;-49
2020/12/15 14:31:16;;;;;;;25.52;16.17;;;11.60;99.90;;;;;;5080644;28;20043;-49
2020/12/15 14:34:20;;;;;;;25.45;16.42;;;12.60;99.90;;;;;;5087479;28;20402;-51
2020/12/15 14:37:24;;;;;;;25.52;16.85;;;13.40;99.90;;;;;;5087225;28;20054;-49
2020/12/15 14:40:28;;;;;;;28.08;17.75;;;13.30;99.90;;;;;;5092340;28;20569;-50
2020/12/15 14:43:32;;;;;;;32.03;18.23;;;12.80;99.90;;;;;;5097649;28;20457;-51
2020/12/15 14:46:36;;;;;;;25.77;16.80;;;12.30;99.90;;;;;;5092260;28;20063;-50
2020/12/15 14:49:40;;;;;;;29.55;17.83;;;11.60;99.90;;;;;;5087066;28;20039;-50
2020/12/15 14:52:44;;;;;;;25.02;16.73;;;10.90;99.90;;;;;;5092792;28;20035;-49
2020/12/15 14:55:48;;;;;;;36.78;16.42;;;10.90;99.90;;;;;;5093581;28;20521;-52
2020/12/15 14:58:52;;;;;;;28.77;18.02;;;11.40;99.90;;;;;;5097844;28;20043;-50
2020/12/15 15:01:57;;;;;;;24.42;16.38;;;12.40;99.90;;;;;;5092372;28;20039;-50
2020/12/15 15:05:02;;;;;;;24.98;16.40;;;12.80;99.90;;;;;;5093069;28;20054;-51
2020/12/15 15:07:40;;;;;;;29.10;16.23;;;12.70;99.90;;;;;;5059121;28;20346;-51
2020/12/15 15:10:44;;;;;;;25.48;16.20;;;12.80;99.90;;;;;;5055051;28;20029;-52
2020/12/15 15:13:50;;;;;;;24.27;16.17;;;13.20;99.90;;;;;;5045298;28;20052;-49
2020/12/15 15:16:57;;;;;;;22.42;16.95;;;13.60;99.90;;;;;;5048916;28;20047;-50
2020/12/15 15:20:01;;;;;;;28.90;16.10;;;13.80;99.90;;;;;;5046958;28;20040;-48
2020/12/15 15:23:06;;;;;;;23.05;15.10;;;14.00;99.90;;;;;;5048618;28;20056;-49
2020/12/15 15:26:10;;;;;;;24.42;16.13;;;13.80;99.90;;;;;;5057738;28;20048;-49
2020/12/15 15:29:14;;;;;;;25.45;15.98;;;13.40;99.90;;;;;;5055761;28;20754;-50
2020/12/15 15:32:19;;;;;;;31.88;18.35;;;12.80;99.90;;;;;;5056363;28;20036;-50
2020/12/15 15:35:24;;;;;;;29.70;20.58;;;12.00;99.90;;;;;;5054037;28;20167;-50
2020/12/15 15:38:29;;;;;;;31.67;21.70;;;11.40;99.90;;;;;;5053818;28;20134;-51
2020/12/15 15:41:33;;;;;;;38.03;24.70;;;10.80;99.90;;;;;;5050449;28;20048;-50
2020/12/15 15:44:37;;;;;;;33.50;22.70;;;10.20;99.90;;;;;;5054541;28;20035;-50
2020/12/15 15:47:41;;;;;;;37.40;22.40;;;9.80;99.90;;;;;;5060369;28;20052;-50
2020/12/15 15:50:46;;;;;;;33.53;22.25;;;9.50;99.90;;;;;;5052332;28;20041;-50
2020/12/15 15:53:50;;;;;;;42.25;26.70;;;9.30;99.90;;;;;;5044911;28;20471;-51
2020/12/15 15:56:54;;;;;;;55.63;34.05;;;9.00;99.90;;;;;;5051050;28;20048;-50